createdAt,value
2022-11-01T00:01:42.115Z,45.88
2022-11-01T00:03:43.661Z,46.58
2022-11-01T00:05:45.606Z,52.75
2022-11-01T00:07:47.112Z,45.67
2022-11-01T00:09:49.287Z,46.70
2022-11-01T00:11:54.974Z,50.03
2022-11-01T00:13:56.577Z,50.30
2022-11-01T00:15:58.423Z,46.85
2022-11-01T00:17:59.950Z,48.13
2022-11-01T00:20:01.510Z,48.78
2022-11-01T00:22:03.079Z,45.40
2022-11-01T00:24:05.482Z,55.05
2022-11-01T00:26:07.775Z,48.70
2022-11-01T00:28:10.808Z,48.75
2022-11-01T00:30:12.744Z,47.80
2022-11-01T00:32:14.198Z,54.83
2022-11-01T00:34:16.539Z,48.47
2022-11-01T00:36:18.371Z,50.58
2022-11-01T00:38:20.064Z,50.20
2022-11-01T00:40:21.531Z,45.85
2022-11-01T00:42:23.467Z,41.72
2022-11-01T00:44:26.318Z,47.78
2022-11-01T00:46:28.135Z,47.05
2022-11-01T00:48:30.066Z,42.75
2022-11-01T00:50:31.541Z,46.60
2022-11-01T00:52:33.031Z,43.53
2022-11-01T00:54:34.589Z,46.15
2022-11-01T00:56:36.094Z,41.85
2022-11-01T00:58:37.578Z,45.63
2022-11-01T01:00:40.529Z,43.22
2022-11-01T01:02:42.292Z,40.80
2022-11-01T01:04:43.779Z,46.97
2022-11-01T01:06:45.290Z,37.35
2022-11-01T01:08:46.778Z,43.75
2022-11-01T01:10:48.424Z,41.40
2022-11-01T01:12:49.913Z,41.05
2022-11-01T01:14:51.564Z,47.20
2022-11-01T01:16:55.153Z,41.55
2022-11-01T01:18:58.175Z,40.53
2022-11-01T01:21:03.124Z,42.88
2022-11-01T01:23:04.916Z,40.38
2022-11-01T01:25:07.396Z,45.22
2022-11-01T01:27:08.881Z,44.05
2022-11-01T01:29:10.349Z,41.40
2022-11-01T01:31:12.586Z,42.80
2022-11-01T01:33:15.487Z,48.88
2022-11-01T01:35:17.600Z,43.85
2022-11-01T01:37:19.507Z,45.20
2022-11-01T01:39:23.510Z,41.40
2022-11-01T01:41:25.010Z,42.35
2022-11-01T01:43:41.004Z,42.08
2022-11-01T01:45:42.918Z,40.30
2022-11-01T01:47:48.376Z,43.42
2022-11-01T01:50:00.389Z,48.22
2022-11-01T01:52:04.353Z,36.47
2022-11-01T01:54:06.026Z,41.03
2022-11-01T01:56:10.355Z,37.13
2022-11-01T01:58:15.215Z,35.53
2022-11-01T02:00:17.252Z,37.40
2022-11-01T02:02:20.332Z,37.30
2022-11-01T02:04:29.221Z,37.15
2022-11-01T02:06:33.350Z,38.78
2022-11-01T02:08:36.767Z,35.75
2022-11-01T02:10:40.847Z,35.42
2022-11-01T02:12:46.574Z,38.88
2022-11-01T02:14:48.110Z,34.72
2022-11-01T02:16:58.201Z,38.72
2022-11-01T02:19:17.589Z,38.80
2022-11-01T02:21:38.286Z,36.30
2022-11-01T02:24:07.263Z,38.80
2022-11-01T02:26:39.550Z,33.63
2022-11-01T02:28:54.957Z,41.00
2022-11-01T02:31:03.500Z,35.83
2022-11-01T02:33:28.395Z,35.63
2022-11-01T02:35:40.305Z,35.03
2022-11-01T02:37:47.569Z,43.25
2022-11-01T02:39:53.292Z,38.70
2022-11-01T02:42:00.204Z,40.70
2022-11-01T02:44:03.874Z,39.13
2022-11-01T02:46:08.244Z,42.55
2022-11-01T02:48:10.290Z,38.00
2022-11-01T02:50:13.825Z,39.10
2022-11-01T02:52:19.639Z,42.95
2022-11-01T02:54:22.890Z,39.28
2022-11-01T02:56:24.494Z,38.78
2022-11-01T02:58:29.607Z,37.75
2022-11-01T03:00:33.365Z,38.55
2022-11-01T03:02:40.256Z,41.17
2022-11-01T03:04:41.764Z,40.15
2022-11-01T03:06:51.012Z,39.95
2022-11-01T03:08:56.902Z,40.13
2022-11-01T03:11:05.348Z,43.70
2022-11-01T03:13:14.824Z,40.13
2022-11-01T03:15:21.421Z,43.15
2022-11-01T03:17:30.333Z,34.47
2022-11-01T03:19:43.693Z,40.92
2022-11-01T03:21:53.513Z,40.85
2022-11-01T03:24:01.237Z,37.95
2022-11-01T03:28:08.932Z,38.40
2022-11-01T03:30:13.979Z,31.88
2022-11-01T03:32:18.856Z,33.85
2022-11-01T03:34:21.007Z,35.03
2022-11-01T03:36:26.520Z,37.13
2022-11-01T03:38:34.322Z,34.08
2022-11-01T03:40:38.819Z,40.10
2022-11-01T03:42:43.624Z,32.92
2022-11-01T03:44:48.963Z,35.33
2022-11-01T03:46:50.517Z,32.20
2022-11-01T03:48:52.072Z,33.25
2022-11-01T03:50:54.779Z,36.30
2022-11-01T03:52:57.007Z,34.40
2022-11-01T03:54:59.884Z,34.13
2022-11-01T03:57:01.397Z,35.22
2022-11-01T03:59:02.921Z,34.95
2022-11-01T04:01:04.599Z,28.75
2022-11-01T04:03:06.722Z,33.13
2022-11-01T04:05:09.128Z,31.27
2022-11-01T04:07:10.650Z,31.50
2022-11-01T04:09:12.114Z,34.72
2022-11-01T04:11:14.945Z,34.83
2022-11-01T04:13:16.445Z,37.17
2022-11-01T04:15:20.342Z,36.40
2022-11-01T04:17:21.828Z,38.83
2022-11-01T04:19:23.349Z,32.65
2022-11-01T04:21:26.055Z,36.40
2022-11-01T04:23:27.616Z,37.40
2022-11-01T04:25:30.002Z,35.45
2022-11-01T04:27:32.852Z,41.53
2022-11-01T04:29:34.836Z,37.28
2022-11-01T04:31:36.928Z,37.22
2022-11-01T04:33:38.452Z,38.92
2022-11-01T04:35:39.927Z,33.80
2022-11-01T04:37:41.473Z,34.47
2022-11-01T04:39:42.982Z,34.03
2022-11-01T04:41:44.532Z,32.35
2022-11-01T04:43:47.425Z,35.72
2022-11-01T04:45:54.246Z,36.78
2022-11-01T04:48:03.862Z,39.22
2022-11-01T04:50:06.520Z,40.83
2022-11-01T04:52:11.022Z,35.97
2022-11-01T04:54:12.577Z,38.08
2022-11-01T04:56:14.082Z,35.22
2022-11-01T04:58:15.568Z,49.90
2022-11-01T05:00:18.693Z,34.90
2022-11-01T05:02:21.520Z,39.55
2022-11-01T05:04:23.069Z,33.83
2022-11-01T05:06:24.577Z,34.97
2022-11-01T05:08:26.459Z,36.65
2022-11-01T05:10:28.228Z,34.00
2022-11-01T05:12:29.884Z,32.63
2022-11-01T05:14:31.637Z,46.42
2022-11-01T05:16:34.549Z,36.08
2022-11-01T05:18:36.063Z,34.78
2022-11-01T05:20:37.663Z,32.50
2022-11-01T05:22:39.181Z,39.67
2022-11-01T05:26:49.188Z,40.22
2022-11-01T05:28:50.651Z,33.17
2022-11-01T05:30:52.124Z,28.95
2022-11-01T05:32:59.447Z,33.72
2022-11-01T05:35:01.126Z,51.30
2022-11-01T05:37:02.635Z,36.05
2022-11-01T05:39:04.234Z,38.50
2022-11-01T05:41:06.135Z,35.60
2022-11-01T05:43:07.749Z,39.75
2022-11-01T05:45:10.083Z,42.88
2022-11-01T05:47:16.081Z,41.05
2022-11-01T05:49:20.379Z,45.05
2022-11-01T05:51:22.835Z,42.65
2022-11-01T05:53:24.444Z,38.97
2022-11-01T05:55:27.395Z,43.20
2022-11-01T05:57:33.239Z,41.95
2022-11-01T05:59:35.034Z,39.00
2022-11-01T06:01:36.611Z,39.60
2022-11-01T06:03:38.344Z,39.95
2022-11-01T06:05:41.251Z,41.72
2022-11-01T06:07:42.760Z,41.30
2022-11-01T06:09:44.399Z,44.88
2022-11-01T06:11:45.910Z,44.97
2022-11-01T06:13:47.381Z,44.92
2022-11-01T06:15:48.955Z,40.17
2022-11-01T06:17:55.142Z,40.75
2022-11-01T06:19:56.686Z,41.78
2022-11-01T06:21:59.594Z,37.72
2022-11-01T06:24:01.574Z,44.22
2022-11-01T06:26:04.447Z,43.45
2022-11-01T06:28:05.990Z,37.92
2022-11-01T06:30:09.141Z,36.10
2022-11-01T06:32:10.685Z,36.42
2022-11-01T06:34:12.236Z,40.15
2022-11-01T06:36:13.734Z,37.15
2022-11-01T06:38:16.579Z,47.88
2022-11-01T06:40:18.178Z,41.72
2022-11-01T06:42:19.706Z,44.47
2022-11-01T06:44:21.768Z,44.50
2022-11-01T06:46:23.300Z,40.22
2022-11-01T06:50:40.636Z,37.28
2022-11-01T06:52:42.322Z,37.08
2022-11-01T06:54:45.154Z,38.63
2022-11-01T06:56:47.138Z,39.40
2022-11-01T06:58:48.936Z,42.63
2022-11-01T07:00:50.504Z,38.30
2022-11-01T07:02:58.708Z,39.47
2022-11-01T07:05:00.270Z,39.15
2022-11-01T07:07:01.771Z,40.22
2022-11-01T07:09:03.460Z,34.42
2022-11-01T07:11:06.434Z,33.72
2022-11-01T07:13:10.632Z,36.15
2022-11-01T07:15:12.119Z,35.42
2022-11-01T07:17:13.723Z,37.55
2022-11-01T07:19:15.292Z,36.00
2022-11-01T07:21:16.865Z,39.90
2022-11-01T07:23:18.494Z,35.13
2022-11-01T07:25:19.978Z,31.70
2022-11-01T07:27:24.640Z,37.90
2022-11-01T07:29:26.184Z,31.20
2022-11-01T07:31:27.696Z,30.10
2022-11-01T07:33:29.264Z,37.38
2022-11-01T07:35:30.990Z,34.97
2022-11-01T07:37:32.567Z,33.83
2022-11-01T07:39:34.074Z,36.67
2022-11-01T07:41:35.583Z,35.42
2022-11-01T07:43:38.732Z,37.38
2022-11-01T07:45:40.300Z,32.97
2022-11-01T07:47:41.866Z,33.08
2022-11-01T07:49:45.066Z,32.35
2022-11-01T07:51:48.220Z,30.75
2022-11-01T07:53:52.559Z,33.42
2022-11-01T07:55:54.164Z,30.77
2022-11-01T07:57:55.719Z,34.42
2022-11-01T07:59:58.618Z,28.70
2022-11-01T08:02:02.550Z,32.42
2022-11-01T08:04:06.928Z,31.33
2022-11-01T08:06:09.037Z,29.58
2022-11-01T08:08:10.739Z,33.67
2022-11-01T08:10:12.425Z,35.35
2022-11-01T08:12:14.596Z,33.63
2022-11-01T08:14:19.069Z,30.13
2022-11-01T08:16:21.988Z,32.47
2022-11-01T08:18:25.373Z,31.08
2022-11-01T08:20:29.184Z,31.60
2022-11-01T08:22:30.733Z,30.85
2022-11-01T08:24:32.491Z,29.25
2022-11-01T08:26:34.025Z,27.50
2022-11-01T08:28:40.000Z,30.02
2022-11-01T08:30:44.453Z,27.02
2022-11-01T08:32:47.357Z,30.90
2022-11-01T08:34:49.120Z,27.13
2022-11-01T08:36:50.644Z,28.38
2022-11-01T08:38:52.215Z,24.10
2022-11-01T08:40:53.847Z,26.17
2022-11-01T08:42:55.725Z,24.88
2022-11-01T08:44:57.297Z,25.08
2022-11-01T08:46:59.395Z,27.42
2022-11-01T08:49:02.741Z,23.95
2022-11-01T08:51:04.372Z,26.15
2022-11-01T08:53:07.116Z,23.83
2022-11-01T08:55:10.336Z,30.33
2022-11-01T08:57:11.899Z,28.55
2022-11-01T08:59:13.414Z,24.42
2022-11-01T09:01:15.270Z,26.65
2022-11-01T09:03:17.015Z,27.15
2022-11-01T09:05:20.133Z,29.48
2022-11-01T09:07:21.686Z,35.83
2022-11-01T09:09:23.189Z,25.98
2022-11-01T09:11:25.633Z,24.23
2022-11-01T09:13:27.307Z,22.60
2022-11-01T09:15:29.101Z,24.00
2022-11-01T09:17:30.801Z,26.70
2022-11-01T09:19:32.397Z,24.27
2022-11-01T09:21:35.374Z,22.77
2022-11-01T09:23:37.554Z,23.17
2022-11-01T09:25:42.102Z,22.60
2022-11-01T09:27:46.400Z,24.92
2022-11-01T09:29:51.031Z,24.23
2022-11-01T09:31:54.336Z,19.98
2022-11-01T09:33:56.658Z,36.88
2022-11-01T09:36:00.332Z,20.17
2022-11-01T09:38:03.894Z,17.90
2022-11-01T09:40:07.083Z,17.85
2022-11-01T09:42:14.358Z,22.10
2022-11-01T09:44:20.463Z,27.48
2022-11-01T09:46:28.587Z,28.40
2022-11-01T09:48:33.101Z,21.20
2022-11-01T09:50:38.066Z,18.60
2022-11-01T09:52:40.950Z,22.40
2022-11-01T09:54:44.118Z,21.50
2022-11-01T09:56:53.841Z,17.65
2022-11-01T09:59:03.845Z,21.75
2022-11-01T10:01:18.819Z,23.52
2022-11-01T10:03:40.423Z,21.55
2022-11-01T10:05:51.888Z,20.58
2022-11-01T10:08:03.343Z,19.77
2022-11-01T10:10:22.384Z,19.65
2022-11-01T10:12:40.534Z,17.52
2022-11-01T10:15:02.472Z,25.40
2022-11-01T10:17:12.654Z,23.98
2022-11-01T10:19:16.072Z,17.05
2022-11-01T10:21:19.748Z,17.98
2022-11-01T10:23:31.322Z,18.58
2022-11-01T10:25:58.703Z,20.92
2022-11-01T10:28:07.510Z,20.45
2022-11-01T10:30:16.068Z,19.95
2022-11-01T10:32:27.107Z,19.23
2022-11-01T10:34:36.138Z,21.63
2022-11-01T10:36:43.368Z,21.65
2022-11-01T10:39:29.968Z,19.23
2022-11-01T10:41:20.660Z,18.77
2022-11-01T10:43:28.201Z,17.55
2022-11-01T10:45:30.381Z,17.25
2022-11-01T10:47:31.972Z,18.92
2022-11-01T10:52:02.749Z,22.60
2022-11-01T10:54:10.921Z,22.50
2022-11-01T10:56:21.308Z,17.75
2022-11-01T10:58:37.409Z,19.88
2022-11-01T11:00:41.890Z,18.92
2022-11-01T11:02:48.806Z,18.88
2022-11-01T11:04:50.644Z,26.88
2022-11-01T11:06:52.516Z,16.33
2022-11-01T11:08:56.432Z,14.75
2022-11-01T11:11:02.505Z,13.98
2022-11-01T11:13:07.684Z,16.20
2022-11-01T11:15:18.251Z,15.40
2022-11-01T11:17:24.897Z,16.45
2022-11-01T11:19:35.714Z,16.52
2022-11-01T11:21:37.704Z,15.85
2022-11-01T11:23:41.349Z,16.52
2022-11-01T11:25:42.969Z,37.58
2022-11-01T11:27:46.767Z,31.63
2022-11-01T11:29:52.998Z,13.90
2022-11-01T11:31:59.684Z,13.25
2022-11-01T11:34:06.914Z,14.77
2022-11-01T11:36:08.864Z,15.98
2022-11-01T11:38:14.344Z,12.75
2022-11-01T11:40:19.691Z,14.80
2022-11-01T11:42:25.379Z,14.68
2022-11-01T11:44:40.404Z,14.40
2022-11-01T11:46:56.527Z,16.58
2022-11-01T11:49:00.275Z,14.88
2022-11-01T11:51:04.751Z,14.55
2022-11-01T11:53:16.985Z,15.45
2022-11-01T11:55:29.276Z,11.93
2022-11-01T11:57:36.708Z,13.95
2022-11-01T11:59:39.917Z,12.15
2022-11-01T12:01:41.992Z,12.80
2022-11-01T12:03:50.702Z,13.00
2022-11-01T12:05:59.049Z,15.27
2022-11-01T12:08:00.943Z,13.65
2022-11-01T12:10:04.705Z,15.68
2022-11-01T12:12:07.822Z,13.40
2022-11-01T12:14:22.105Z,14.95
2022-11-01T12:16:24.601Z,14.32
2022-11-01T12:18:26.307Z,12.77
2022-11-01T12:20:37.198Z,13.80
2022-11-01T12:22:44.914Z,12.13
2022-11-01T12:24:50.731Z,13.00
2022-11-01T12:26:55.651Z,14.15
2022-11-01T12:29:08.631Z,15.88
2022-11-01T12:31:14.814Z,13.25
2022-11-01T12:33:24.932Z,14.88
2022-11-01T12:35:31.450Z,15.95
2022-11-01T12:37:46.183Z,11.80
2022-11-01T12:39:53.148Z,11.85
2022-11-01T12:41:58.349Z,10.98
2022-11-01T12:44:08.053Z,11.82
2022-11-01T12:46:16.052Z,13.13
2022-11-01T12:48:24.014Z,13.05
2022-11-01T12:50:32.159Z,13.45
2022-11-01T12:52:42.363Z,12.68
2022-11-01T12:54:52.770Z,11.52
2022-11-01T12:56:54.868Z,10.57
2022-11-01T12:59:00.696Z,19.15
2022-11-01T13:01:21.796Z,15.32
2022-11-01T13:03:38.108Z,11.57
2022-11-01T13:05:52.184Z,13.68
2022-11-01T13:08:05.021Z,18.50
2022-11-01T13:10:14.651Z,16.27
2022-11-01T13:12:26.544Z,12.23
2022-11-01T13:14:42.669Z,13.30
2022-11-01T13:16:50.434Z,12.32
2022-11-01T13:19:14.065Z,12.27
2022-11-01T13:21:28.491Z,13.13
2022-11-01T13:23:36.124Z,10.75
2022-11-01T13:27:52.971Z,14.38
2022-11-01T13:30:02.199Z,14.23
2022-11-01T13:32:13.456Z,13.20
2022-11-01T13:34:28.369Z,13.80
2022-11-01T13:36:38.775Z,12.10
2022-11-01T13:38:47.665Z,13.88
2022-11-01T13:40:56.719Z,12.77
2022-11-01T13:43:04.449Z,14.75
2022-11-01T13:45:36.603Z,12.25
2022-11-01T13:47:50.017Z,11.20
2022-11-01T13:50:34.141Z,12.75
2022-11-01T13:52:42.673Z,13.32
2022-11-01T13:54:52.027Z,11.48
2022-11-01T13:56:58.069Z,11.85
2022-11-01T13:58:59.867Z,11.43
2022-11-01T14:01:33.904Z,11.80
2022-11-01T14:03:36.510Z,12.93
2022-11-01T14:05:38.891Z,15.20
2022-11-01T14:08:15.225Z,11.60
2022-11-01T14:10:49.520Z,12.27
2022-11-01T14:13:14.243Z,12.30
2022-11-01T14:15:19.969Z,14.60
2022-11-01T14:18:01.377Z,9.43
2022-11-01T14:20:45.019Z,13.75
2022-11-01T14:22:50.127Z,13.20
2022-11-01T14:24:57.750Z,15.68
2022-11-01T14:29:15.583Z,13.60
2022-11-01T14:31:19.990Z,13.30
2022-11-01T14:33:22.850Z,12.52
2022-11-01T14:35:27.136Z,13.40
2022-11-01T14:37:40.920Z,11.55
2022-11-01T14:39:51.696Z,11.65
2022-11-01T14:41:58.515Z,12.00
2022-11-01T14:44:05.431Z,11.93
2022-11-01T14:46:14.269Z,11.63
2022-11-01T14:48:22.510Z,10.10
2022-11-01T14:50:31.486Z,11.10
2022-11-01T14:52:41.958Z,14.10
2022-11-01T14:54:46.511Z,12.80
2022-11-01T14:56:50.184Z,12.27
2022-11-01T14:59:11.244Z,14.75
2022-11-01T15:01:15.506Z,10.18
2022-11-01T15:03:18.330Z,13.20
2022-11-01T15:05:20.002Z,11.60
2022-11-01T15:07:26.218Z,8.95
2022-11-01T15:09:32.226Z,12.23
2022-11-01T15:11:35.137Z,12.73
2022-11-01T15:13:42.354Z,13.13
2022-11-01T15:15:53.491Z,13.20
2022-11-01T15:17:57.429Z,12.15
2022-11-01T15:20:01.572Z,10.25
2022-11-01T15:22:06.081Z,13.32
2022-11-01T15:24:18.841Z,11.05
2022-11-01T15:26:25.055Z,10.55
2022-11-01T15:28:34.696Z,11.38
2022-11-01T15:30:38.593Z,13.70
2022-11-01T15:32:41.582Z,11.50
2022-11-01T15:34:51.820Z,11.88
2022-11-01T15:36:53.779Z,10.93
2022-11-01T15:38:57.268Z,10.95
2022-11-01T15:40:58.985Z,10.98
2022-11-01T15:43:02.362Z,9.75
2022-11-01T15:45:19.087Z,10.00
2022-11-01T15:47:24.163Z,12.00
2022-11-01T15:49:30.990Z,9.70
2022-11-01T15:51:46.629Z,12.45
2022-11-01T15:53:54.592Z,12.50
2022-11-01T15:56:01.208Z,12.95
2022-11-01T15:58:07.928Z,14.52
2022-11-01T16:00:18.520Z,14.00
2022-11-01T16:02:25.307Z,15.65
2022-11-01T16:04:35.414Z,14.95
2022-11-01T16:06:45.637Z,14.48
2022-11-01T16:08:51.719Z,12.18
2022-11-01T16:10:53.732Z,12.57
2022-11-01T16:12:58.114Z,11.80
2022-11-01T16:15:05.971Z,16.13
2022-11-01T16:17:21.884Z,13.00
2022-11-01T16:19:38.604Z,13.43
2022-11-01T16:21:47.819Z,11.50
2022-11-01T16:23:53.781Z,16.17
2022-11-01T16:26:04.323Z,16.90
2022-11-01T16:28:30.253Z,17.23
2022-11-01T16:30:44.641Z,14.77
2022-11-01T16:32:46.239Z,22.67
2022-11-01T16:34:49.492Z,14.95
2022-11-01T16:36:53.259Z,19.02
2022-11-01T16:38:55.310Z,15.88
2022-11-01T16:40:58.802Z,14.90
2022-11-01T16:43:00.559Z,14.73
2022-11-01T16:45:02.121Z,14.20
2022-11-01T16:47:08.770Z,18.25
2022-11-01T16:49:19.441Z,20.77
2022-11-01T16:51:23.780Z,17.73
2022-11-01T16:53:29.271Z,16.33
2022-11-01T16:55:32.416Z,15.52
2022-11-01T16:57:38.243Z,14.15
2022-11-01T16:59:41.423Z,15.25
2022-11-01T17:01:45.667Z,14.30
2022-11-01T17:03:47.677Z,13.80
2022-11-01T17:05:53.812Z,15.50
2022-11-01T17:07:59.242Z,14.60
2022-11-01T17:10:00.904Z,13.40
2022-11-01T17:12:06.148Z,12.77
2022-11-01T17:14:07.684Z,13.77
2022-11-01T17:16:17.066Z,16.77
2022-11-01T17:18:27.921Z,16.92
2022-11-01T17:20:29.765Z,20.25
2022-11-01T17:22:34.732Z,19.17
2022-11-01T17:24:37.863Z,19.45
2022-11-01T17:26:39.481Z,17.70
2022-11-01T17:28:46.640Z,16.35
2022-11-01T17:30:53.477Z,16.30
2022-11-01T17:32:54.955Z,15.82
2022-11-01T17:34:56.540Z,15.90
2022-11-01T17:37:00.535Z,16.92
2022-11-01T17:39:02.232Z,15.48
2022-11-01T17:41:16.940Z,18.98
2022-11-01T17:43:21.059Z,15.73
2022-11-01T17:45:22.841Z,12.57
2022-11-01T17:47:24.387Z,18.23
2022-11-01T17:49:25.991Z,24.52
2022-11-01T17:51:29.594Z,17.70
2022-11-01T17:53:31.303Z,18.63
2022-11-01T17:55:34.400Z,14.18
2022-11-01T17:57:38.650Z,16.52
2022-11-01T17:59:40.273Z,19.45
2022-11-01T18:01:41.969Z,19.85
2022-11-01T18:03:43.579Z,14.70
2022-11-01T18:05:45.348Z,16.02
2022-11-01T18:07:49.718Z,17.05
2022-11-01T18:09:53.621Z,15.90
2022-11-01T18:12:07.629Z,20.05
2022-11-01T18:16:26.405Z,15.90
2022-11-01T18:18:39.290Z,17.52
2022-11-01T18:20:49.449Z,15.85
2022-11-01T18:22:54.585Z,18.45
2022-11-01T18:25:00.366Z,21.67
2022-11-01T18:27:07.713Z,67.72
2022-11-01T18:29:16.717Z,40.72
2022-11-01T18:31:22.188Z,30.95
2022-11-01T18:33:32.647Z,34.55
2022-11-01T18:35:40.028Z,26.13
2022-11-01T18:37:47.118Z,23.88
2022-11-01T18:39:55.484Z,24.90
2022-11-01T18:41:58.713Z,36.60
2022-11-01T18:44:00.339Z,27.48
2022-11-01T18:46:24.396Z,19.48
2022-11-01T18:48:28.140Z,24.83
2022-11-01T18:50:29.708Z,20.98
2022-11-01T18:52:33.122Z,31.80
2022-11-01T18:54:40.661Z,20.50
2022-11-01T18:56:48.185Z,28.20
2022-11-01T18:58:51.091Z,31.83
2022-11-01T19:01:01.404Z,23.45
2022-11-01T19:03:11.039Z,49.05
2022-11-01T19:05:15.371Z,24.15
2022-11-01T19:07:19.101Z,16.58
2022-11-01T19:09:24.533Z,29.27
2022-11-01T19:11:27.370Z,33.88
2022-11-01T19:13:33.065Z,49.83
2022-11-01T19:15:37.470Z,60.15
2022-11-01T19:17:41.592Z,42.33
2022-11-01T19:19:44.604Z,38.15
2022-11-01T19:21:46.531Z,41.75
2022-11-01T19:23:49.616Z,38.42
2022-11-01T19:25:51.391Z,26.60
2022-11-01T19:27:56.834Z,23.45
2022-11-01T19:29:58.734Z,20.85
2022-11-01T19:32:03.400Z,16.05
2022-11-01T19:34:12.436Z,17.42
2022-11-01T19:36:19.204Z,15.70
2022-11-01T19:38:21.683Z,12.88
2022-11-01T19:40:28.154Z,15.30
2022-11-01T19:42:31.585Z,17.38
2022-11-01T19:44:33.266Z,13.35
2022-11-01T19:46:35.676Z,18.80
2022-11-01T19:48:37.297Z,16.40
2022-11-01T19:50:41.355Z,15.07
2022-11-01T19:52:47.289Z,14.10
2022-11-01T19:54:54.346Z,22.85
2022-11-01T19:56:59.107Z,15.40
2022-11-01T19:59:01.266Z,17.50
2022-11-01T20:01:30.700Z,14.25
2022-11-01T20:03:40.056Z,12.48
2022-11-01T20:05:41.854Z,14.45
2022-11-01T20:07:44.810Z,13.18
2022-11-01T20:09:46.861Z,16.08
2022-11-01T20:11:49.133Z,13.60
2022-11-01T20:13:50.877Z,17.23
2022-11-01T20:15:52.446Z,17.27
2022-11-01T20:17:54.101Z,16.48
2022-11-01T20:19:56.171Z,17.45
2022-11-01T20:21:58.147Z,15.30
2022-11-01T20:24:01.559Z,17.55
2022-11-01T20:26:04.180Z,37.15
2022-11-01T20:28:07.327Z,25.35
2022-11-01T20:30:11.425Z,21.83
2022-11-01T20:32:13.836Z,24.98
2022-11-01T20:34:18.529Z,21.60
2022-11-01T20:36:20.968Z,50.72
2022-11-01T20:38:23.089Z,24.10
2022-11-01T20:40:26.964Z,27.95
2022-11-01T20:42:28.844Z,40.20
2022-11-01T20:44:33.054Z,49.13
2022-11-01T20:46:37.396Z,38.97
2022-11-01T20:48:39.649Z,32.15
2022-11-01T20:50:44.633Z,22.08
2022-11-01T20:52:46.942Z,21.58
2022-11-01T20:54:49.071Z,29.90
2022-11-01T20:56:52.192Z,25.65
2022-11-01T20:58:53.884Z,20.95
2022-11-01T21:00:56.059Z,23.42
2022-11-01T21:02:58.084Z,17.80
2022-11-01T21:05:02.721Z,16.42
2022-11-01T21:07:09.353Z,14.43
2022-11-01T21:09:29.107Z,15.98
2022-11-01T21:11:31.925Z,17.35
2022-11-01T21:13:37.239Z,20.88
2022-11-01T21:15:39.901Z,17.80
2022-11-01T21:17:41.631Z,17.42
2022-11-01T21:19:45.074Z,18.25
2022-11-01T21:21:48.965Z,15.70
2022-11-01T21:23:50.888Z,20.55
2022-11-01T21:25:55.873Z,23.67
2022-11-01T21:27:58.093Z,20.13
2022-11-01T21:30:16.853Z,13.32
2022-11-01T21:32:25.101Z,19.75
2022-11-01T21:34:29.805Z,18.27
2022-11-01T21:36:36.428Z,15.93
2022-11-01T21:38:41.261Z,19.95
2022-11-01T21:40:42.927Z,19.17
2022-11-01T21:42:45.236Z,14.05
2022-11-01T21:44:47.050Z,14.63
2022-11-01T21:46:52.081Z,14.15
2022-11-01T21:48:57.870Z,15.63
2022-11-01T21:50:59.632Z,12.63
2022-11-01T21:53:01.705Z,13.93
2022-11-01T21:55:04.728Z,22.95
2022-11-01T21:57:08.334Z,15.13
2022-11-01T21:59:10.284Z,14.93
2022-11-01T22:01:12.420Z,12.65
2022-11-01T22:03:15.991Z,17.35
2022-11-01T22:05:18.618Z,21.27
2022-11-01T22:07:20.596Z,14.98
2022-11-01T22:09:22.456Z,23.08
2022-11-01T22:11:26.911Z,19.08
2022-11-01T22:13:31.015Z,17.33
2022-11-01T22:15:33.712Z,15.45
2022-11-01T22:17:35.721Z,17.08
2022-11-01T22:19:38.975Z,20.55
2022-11-01T22:21:40.962Z,17.88
2022-11-01T22:23:42.982Z,31.80
2022-11-01T22:25:45.089Z,24.48
2022-11-01T22:27:46.707Z,19.55
2022-11-01T22:29:48.254Z,17.40
2022-11-01T22:31:49.812Z,20.38
2022-11-01T22:33:52.144Z,24.58
2022-11-01T22:35:55.288Z,26.17
2022-11-01T22:37:56.933Z,26.15
2022-11-01T22:39:58.861Z,14.85
2022-11-01T22:42:00.964Z,13.30
2022-11-01T22:44:04.723Z,15.35
2022-11-01T22:46:20.207Z,11.45
2022-11-01T22:48:23.227Z,17.67
2022-11-01T22:50:28.618Z,15.90
2022-11-01T22:52:38.600Z,17.25
2022-11-01T22:54:42.785Z,20.02
2022-11-01T22:56:44.467Z,27.65
2022-11-01T22:58:46.261Z,30.67
2022-11-01T23:00:49.418Z,31.27
2022-11-01T23:02:51.983Z,33.97
2022-11-01T23:05:15.974Z,22.67
2022-11-01T23:07:26.446Z,15.93
2022-11-01T23:09:29.849Z,14.18
2022-11-01T23:11:31.951Z,18.35
2022-11-01T23:13:36.710Z,12.30
2022-11-01T23:15:38.641Z,19.77
2022-11-01T23:17:40.852Z,25.27
2022-11-01T23:19:45.239Z,30.33
2022-11-01T23:21:48.236Z,42.70
2022-11-01T23:23:53.363Z,26.77
2022-11-01T23:26:00.706Z,25.08
2022-11-01T23:28:02.273Z,26.30
2022-11-01T23:30:04.621Z,30.52
2022-11-01T23:32:08.584Z,22.25
2022-11-01T23:34:10.169Z,16.85
2022-11-01T23:36:17.040Z,22.35
2022-11-01T23:38:21.458Z,15.35
2022-11-01T23:40:28.517Z,14.98
2022-11-01T23:42:31.584Z,15.63
2022-11-01T23:44:37.175Z,12.35
2022-11-01T23:46:38.841Z,12.05
2022-11-01T23:48:44.204Z,15.30
2022-11-01T23:50:46.515Z,11.60
2022-11-01T23:52:52.901Z,13.50
2022-11-01T23:54:54.485Z,12.13
2022-11-01T23:56:56.038Z,13.27
2022-11-01T23:59:02.884Z,14.10
